Latest Weather Observations for White Cliffs AWS

IDN60801

Issued at 4:06 am EDT Saturday 7 March 2015 (issued every 30 minutes, with the page automatically refreshed every 10 minutes)

About weather observations | Map of weather stations | Latest weather observations for NSW | Other Formats
Station Details ID: 046129 Name: WHITE CLIFFS AWS Lat: -30.85 Lon: 143.07 Height: 158.0 m
Data from the previous 72 hours. | See also: Recent months at White Cliffs AWS
Date/Time
EDT
Temp
°C
App
Temp
°C
Dew
Point
Rel
Hum
%
Delta-T
°C
Wind Press
QNH
hPa
Press
MSL
hPa
Rain
since 9 am
mm
Dir
 
Spd
km/h
Gust
km/h
Spd
kts
Gust
kts
07/04:00am 18.0 14.6 5.9 45 6.0 SSW 13 15 7 8 1012.0 1011.2 0.0
07/03:30am 19.9 15.9 6.6 42 6.7 SSE 17 20 9 11 1011.9 1011.1 0.0
07/03:00am 19.4 15.0 6.5 43 6.5 SSE 19 22 10 12 1011.8 1011.0 0.0
07/02:30am 18.6 15.2 5.8 43 6.3 S 13 15 7 8 1012.6 1011.8 0.0
07/02:00am 19.1 16.1 5.9 42 6.6 S 11 13 6 7 1013.0 1012.2 0.0
07/01:30am 19.8 16.4 5.8 40 7.0 S 13 15 7 8 1013.3 1012.5 0.0
07/01:00am 20.1 17.0 5.4 38 7.3 SSE 11 15 6 8 1013.4 1012.6 0.0
07/12:30am 20.4 16.0 4.8 36 7.7 S 17 20 9 11 1013.5 1012.7 0.0
07/12:00am 20.5 16.7 4.1 34 7.9 S 13 15 7 8 1013.4 1012.6 0.0
 
Date/Time
EDT
Temp
°C
App
Temp
°C
Dew
Point
Rel
Hum
%
Delta-T
°C
Wind Press
QNH
hPa
Press
MSL
hPa
Rain
since 9 am
mm
Dir
 
Spd
km/h
Gust
km/h
Spd
kts
Gust
kts
06/11:30pm 21.0 16.8 3.7 32 8.4 S 15 17 8 9 1013.4 1012.6 0.0
06/11:00pm 21.3 17.0 3.0 30 8.7 S 15 19 8 10 1013.4 1012.6 0.0
06/10:30pm 21.6 17.3 3.3 30 8.8 S 15 17 8 9 1013.4 1012.6 0.0
06/10:00pm 22.0 17.7 3.2 29 9.1 S 15 17 8 9 1013.4 1012.6 0.0
06/09:30pm 22.0 18.4 2.7 28 9.2 SSW 11 13 6 7 1013.2 1012.4 0.0
06/09:00pm 22.9 18.9 2.9 27 9.6 S 13 15 7 8 1012.8 1012.0 0.0
06/08:30pm 23.8 19.5 3.2 26 10.0 S 15 20 8 11 1012.5 1011.7 0.0
06/08:00pm 24.5 19.2 3.2 25 10.4 S 20 30 11 16 1012.1 1011.3 0.0
06/07:30pm 25.1 19.1 3.1 24 10.8 S 24 32 13 17 1011.7 1010.9 0.0
06/07:00pm 25.8 20.2 3.7 24 11.0 S 22 32 12 17 1011.7 1010.9 0.0
06/06:30pm 26.0 19.6 3.3 23 11.3 SSW 26 32 14 17 1011.8 1011.0 0.0
06/06:00pm 26.2 20.0 2.2 21 11.7 S 24 33 13 18 1011.9 1011.1 0.0
06/05:30pm 26.8 20.7 2.7 21 11.9 SSW 24 32 13 17 1011.8 1011.0 0.0
06/05:00pm 26.7 20.7 3.2 22 11.7 S 24 35 13 19 1011.9 1011.1 0.0
06/04:30pm 26.1 20.3 2.1 21 11.7 S 22 33 12 18 1012.3 1011.5 0.0
06/04:00pm 25.6 19.4 2.3 22 11.3 S 24 33 13 18 1012.6 1011.8 0.0
06/03:30pm 25.3 19.2 0.7 20 11.6 SSW 22 35 12 19 1013.2 1012.4 0.0
06/03:00pm 24.8 19.1 0.3 20 11.4 S 20 35 11 19 1013.8 1013.0 0.0
06/02:30pm 24.1 18.4 0.4 21 11.0 S 20 30 11 16 1014.3 1013.5 0.0
06/02:00pm 23.6 17.9 0.7 22 10.6 S 20 28 11 15 1014.9 1014.1 0.0
06/01:30pm 23.2 17.6 1.5 24 10.2 S 20 30 11 16 1015.2 1014.4 0.0
06/01:00pm 22.4 16.8 1.4 25 9.8 SSW 20 30 11 16 1015.6 1014.8 0.0
06/12:30pm 20.8 14.5 1.6 28 8.9 S 24 30 13 16 1016.3 1015.6 0.0
06/12:00pm 20.5 14.3 1.9 29 8.6 S 24 32 13 17 1016.6 1015.8 0.0
06/11:30am 20.7 14.6 2.5 30 8.6 S 24 32 13 17 1017.1 1016.3 0.0
06/11:00am 19.2 13.1 3.0 34 7.6 S 24 32 13 17 1017.3 1016.5 0.0
06/10:30am 19.0 12.2 3.2 35 7.4 S 28 33 15 18 1017.3 1016.5 0.0
06/10:00am 18.0 11.9 2.7 36 7.1 S 24 33 13 18 1017.1 1016.3 0.0
06/09:30am 17.4 10.8 2.2 36 6.9 S 26 32 14 17 1017.1 1016.3 0.0
06/09:00am 16.8 9.8 2.0 37 6.7 S 28 33 15 18 1017.0 1016.2 0.0
06/08:30am 16.0 9.3 1.3 37 6.5 S 26 37 14 20 1016.8 1016.0 0.0
06/08:00am 15.2 8.0 0.6 37 6.3 S 28 35 15 19 1016.6 1015.8 0.0
06/07:30am 14.9 8.4 0.0 36 6.3 S 24 30 13 16 1015.9 1015.1 0.0
06/07:00am 15.2 9.0 -0.1 35 6.5 S 22 30 12 16 1015.6 1014.8 0.0
06/06:30am 15.6 9.0 -0.2 34 6.7 S 24 32 13 17 1015.6 1014.8 0.0
06/06:00am 14.7 9.1 -2.7 30 7.0 SSW 17 20 9 11 1015.3 1014.5 0.0
06/05:30am 14.2 9.3 -3.1 30 6.8 S 13 15 7 8 1015.2 1014.4 0.0
06/05:00am 14.0 9.1 -3.3 30 6.8 SSW 13 13 7 7 1015.4 1014.6 0.0
06/04:30am 14.6 10.1 -3.2 29 7.0 SSW 11 15 6 8 1015.4 1014.6 0.0
06/04:00am 14.9 10.0 -3.4 28 7.2 S 13 15 7 8 1015.5 1014.7 0.0
06/03:30am 15.5 10.6 -3.4 27 7.5 S 13 17 7 9 1015.6 1014.8 0.0
06/03:00am 15.9 11.0 -3.6 26 7.7 S 13 15 7 8 1015.9 1015.1 0.0
06/02:30am 16.6 11.3 -3.5 25 8.1 S 15 19 8 10 1016.1 1015.3 0.0
06/02:00am 16.6 11.0 -2.5 27 7.8 S 17 20 9 11 1016.5 1015.7 0.0
06/01:30am 16.5 11.4 -2.0 28 7.7 S 15 17 8 9 1016.8 1016.0 0.0
06/01:00am 16.9 11.8 -2.2 27 7.9 S 15 17 8 9 1017.2 1016.4 0.0
06/12:30am 17.5 12.7 -2.2 26 8.2 S 13 15 7 8 1017.2 1016.4 0.0
06/12:00am 18.1 13.0 -2.2 25 8.5 S 15 17 8 9 1017.2 1016.4 0.0
 
Date/Time
EDT
Temp
°C
App
Temp
°C
Dew
Point
Rel
Hum
%
Delta-T
°C
Wind Press
QNH
hPa
Press
MSL
hPa
Rain
since 9 am
mm
Dir
 
Spd
km/h
Gust
km/h
Spd
kts
Gust
kts
05/11:30pm 18.2 13.0 -2.7 24 8.7 SSW 15 17 8 9 1017.3 1016.5 0.0
05/11:00pm 18.3 13.8 -3.2 23 8.8 S 11 13 6 7 1017.4 1016.6 0.0
05/10:30pm 19.2 14.7 -3.0 22 9.2 S 11 13 6 7 1017.4 1016.6 0.0
05/10:00pm 20.1 15.2 -3.5 20 9.8 S 13 15 7 8 1017.1 1016.3 0.0
05/09:30pm 21.0 15.3 -3.5 19 10.3 S 17 19 9 10 1016.6 1015.8 0.0
05/09:00pm 21.6 15.3 -3.7 18 10.6 S 20 26 11 14 1016.1 1015.3 0.0
05/08:30pm 22.2 14.2 -2.5 19 10.7 S 30 37 16 20 1015.7 1014.9 0.0
05/08:00pm 23.2 15.0 -1.0 20 10.8 S 32 39 17 21 1015.3 1014.5 0.0
05/07:30pm 24.2 16.8 -0.9 19 11.4 S 28 37 15 20 1014.9 1014.1 0.0
05/07:00pm 25.1 16.9 -0.9 18 11.9 S 32 41 17 22 1014.7 1013.9 0.0
05/06:30pm 25.7 17.6 -0.4 18 12.1 SSE 32 43 17 23 1014.6 1013.8 0.0
05/06:00pm 26.4 19.4 -0.6 17 12.5 S 26 39 14 21 1014.4 1013.6 0.0
05/05:30pm 26.8 19.2 0.5 18 12.5 S 30 39 16 21 1014.4 1013.6 0.0
05/05:00pm 26.9 19.0 1.3 19 12.3 S 32 41 17 22 1014.5 1013.7 0.0
05/04:30pm 27.1 19.0 0.8 18 12.6 S 33 44 18 24 1014.3 1013.5 0.0
05/04:10pm 26.9 19.3 2.7 21 11.9 S 32 50 17 27 1014.5 1013.7 0.0
05/04:00pm 26.5 19.4 5.5 26 10.9 S 32 46 17 25 1014.6 1013.8 0.0
05/03:30pm 26.7 19.5 5.1 25 11.1 S 32 41 17 22 1015.1 1014.3 0.0
05/03:13pm 26.6 20.3 5.5 26 10.9 SSE 28 50 15 27 1015.1 1014.3 0.0
05/03:00pm 26.9 20.6 5.8 26 11.0 S 28 39 15 21 1015.4 1014.6 0.0
05/02:30pm 26.0 19.6 5.0 26 10.7 S 28 41 15 22 1015.6 1014.8 0.0
05/02:25pm 25.5 19.2 5.7 28 10.2 S 28 46 15 25 1015.5 1014.7 0.0
05/02:00pm 25.1 18.0 5.3 28 10.1 S 32 44 17 24 1015.9 1015.1 0.0
05/01:30pm 24.2 17.9 7.4 34 8.9 S 30 43 16 23 1016.7 1015.9 0.0
05/01:00pm 24.2 17.6 8.6 37 8.4 S 33 46 18 25 1017.4 1016.6 0.0
05/12:30pm 23.8 17.7 10.5 43 7.4 SSE 33 48 18 26 1018.0 1017.2 0.0
05/12:00pm 22.8 16.6 9.2 42 7.3 S 32 44 17 24 1018.0 1017.2 0.0
05/11:30am 22.2 16.0 10.0 46 6.7 S 33 43 18 23 1018.2 1017.4 0.0
05/11:00am 21.7 14.3 9.9 47 6.4 S 39 50 21 27 1018.2 1017.4 0.0
05/10:30am 21.4 13.2 10.3 49 6.1 S 44 57 24 31 1018.3 1017.5 0.0
05/10:00am 20.9 13.6 10.1 50 5.9 S 39 50 21 27 1018.1 1017.3 0.0
05/09:30am 20.2 13.5 9.7 51 5.7 S 35 50 19 27 1018.0 1017.2 0.0
05/09:00am 19.6 13.3 9.8 53 5.3 S 33 48 18 26 1017.9 1017.1 0.0
05/08:30am 19.0 12.9 9.8 55 4.9 S 32 43 17 23 1017.6 1016.8 0.0
05/08:00am 18.7 12.6 9.8 56 4.8 S 32 43 17 23 1017.1 1016.3 0.0
05/07:30am 18.6 12.2 9.4 55 4.9 S 33 43 18 23 1017.0 1016.2 0.0
05/07:00am 19.2 12.8 8.5 50 5.6 S 32 43 17 23 1016.1 1015.3 0.0
05/06:30am 19.9 12.2 7.3 44 6.5 S 37 50 20 27 1015.6 1014.8 0.0
05/06:00am 20.7 13.5 5.9 38 7.4 S 33 46 18 25 1015.2 1014.4 0.0
05/05:30am 21.3 12.5 5.6 36 7.9 S 41 54 22 29 1014.7 1013.9 0.0
05/05:22am 21.5 13.9 5.8 36 7.9 SSW 35 54 19 29 1014.5 1013.7 0.0
05/05:00am 22.1 14.7 5.1 33 8.5 SSW 33 43 18 23 1014.2 1013.4 0.0
05/04:30am 22.4 16.8 5.4 33 8.6 S 24 30 13 16 1013.7 1012.9 0.0
05/04:00am 23.0 17.5 5.9 33 8.7 S 24 30 13 16 1013.4 1012.6 0.0
05/03:30am 23.6 19.1 6.8 34 8.7 S 20 28 11 15 1013.4 1012.6 0.0
05/03:00am 24.1 20.2 7.3 34 8.9 S 17 22 9 12 1013.2 1012.4 0.0
05/02:30am 24.4 20.9 7.1 33 9.1 S 15 19 8 10 1013.3 1012.5 0.0
05/02:00am 25.0 21.5 7.2 32 9.4 SSW 15 19 8 10 1013.5 1012.7 0.0
05/01:30am 25.6 21.3 7.2 31 9.8 SSW 19 22 10 12 1013.6 1012.8 0.0
05/01:00am 26.2 21.8 7.3 30 10.1 SSW 20 26 11 14 1013.6 1012.8 0.0
05/12:30am 26.7 21.9 7.2 29 10.4 SSW 22 28 12 15 1013.5 1012.7 0.0
05/12:00am 27.2 22.6 6.6 27 10.9 SSW 20 28 11 15 1013.3 1012.5 0.0
 
Date/Time
EDT
Temp
°C
App
Temp
°C
Dew
Point
Rel
Hum
%
Delta-T
°C
Wind Press
QNH
hPa
Press
MSL
hPa
Rain
since 9 am
mm
Dir
 
Spd
km/h
Gust
km/h
Spd
kts
Gust
kts
04/11:30pm 27.9 23.5 6.6 26 11.3 SSW 19 22 10 12 1013.4 1012.6 0.0
04/11:00pm 28.1 24.4 6.2 25 11.6 SSW 15 17 8 9 1013.5 1012.7 0.0
04/10:30pm 29.0 24.0 6.4 24 12.1 S 22 30 12 16 1013.4 1012.6 0.0
04/10:00pm 29.5 24.8 6.2 23 12.4 SSW 20 26 11 14 1013.3 1012.5 0.0
04/09:30pm 30.2 25.1 6.1 22 12.9 SSW 22 30 12 16 1012.9 1012.1 0.0
04/09:00pm 31.0 25.9 6.1 21 13.4 SSW 22 28 12 15 1012.6 1011.8 0.0
04/08:30pm 31.9 27.4 6.9 21 13.7 SW 20 28 11 15 1012.2 1011.4 0.0
04/08:00pm 32.1 27.5 6.3 20 14.0 SW 20 26 11 14 1011.8 1011.0 0.0
04/07:30pm 32.8 28.3 6.9 20 14.2 SSW 20 26 11 14 1011.9 1011.1 0.0
04/07:00pm 33.7 29.4 6.9 19 14.8 SSW 19 24 10 13 1011.8 1011.0 0.0
04/06:30pm 34.1 29.7 6.4 18 15.2 SW 19 26 10 14 1011.7 1010.9 0.0
04/06:00pm 34.0 30.1 5.5 17 15.4 WSW 15 20 8 11 1011.6 1010.8 0.0
04/05:30pm 33.8 29.5 5.4 17 15.3 S 17 32 9 17 1011.6 1010.8 0.0
04/05:00pm 34.3 30.5 5.8 17 15.5 WSW 15 24 8 13 1011.8 1011.0 0.0
04/04:30pm 33.6 29.3 5.2 17 15.2 S 17 24 9 13 1012.0 1011.2 0.0
04/04:00pm 33.6 29.3 5.2 17 15.2 SW 17 26 9 14 1012.4 1011.6 0.0
04/03:30pm 34.1 29.9 5.6 17 15.4 S 17 26 9 14 1012.6 1011.8 0.0
04/03:00pm 34.0 31.3 5.5 17 15.4 SSW 9 19 5 10 1013.0 1012.2 0.0
04/02:30pm 33.8 31.1 5.4 17 15.3 SW 9 19 5 10 1013.3 1012.5 0.0
04/02:00pm 34.1 30.6 5.6 17 15.4 SSW 13 26 7 14 1013.7 1012.9 0.0
04/01:30pm 33.2 29.6 4.9 17 15.1 SSE 13 20 7 11 1014.1 1013.3 0.0
04/01:00pm 32.6 29.3 4.4 17 14.8 SSE 11 20 6 11 1014.4 1013.6 0.0
04/12:30pm 32.1 28.3 4.0 17 14.7 SE 13 22 7 12 1014.8 1014.0 0.0
04/12:00pm 31.4 27.3 4.2 18 14.2 ESE 15 22 8 12 1015.1 1014.3 0.0
04/11:30am 30.5 26.0 4.3 19 13.6 SE 17 24 9 13 1015.4 1014.6 0.0
04/11:00am 30.3 25.9 4.9 20 13.3 ESE 17 22 9 12 1015.5 1014.7 0.0
04/10:30am 28.8 23.8 3.6 20 12.8 ESE 19 24 10 13 1015.5 1014.7 0.0
04/10:00am 27.9 22.9 3.6 21 12.3 ESE 19 24 10 13 1015.4 1014.6 0.0
04/09:30am 27.2 22.6 3.7 22 11.8 SE 17 24 9 13 1015.4 1014.6 0.0
04/09:00am 25.1 21.3 3.7 25 10.6 S 13 19 7 10 1015.2 1014.4 0.0
04/08:30am 23.9 20.6 4.3 28 9.8 SSE 11 15 6 8 1014.9 1014.1 0.0
04/08:00am 23.3 19.9 3.8 28 9.6 S 11 15 6 8 1014.5 1013.7 0.0
04/07:30am 23.5 18.8 3.4 27 9.8 S 17 20 9 11 1013.8 1013.0 0.0
04/07:00am 23.9 18.6 3.2 26 10.1 SSE 20 24 11 13 1013.4 1012.6 0.0
04/06:30am 24.1 18.9 3.4 26 10.2 SSE 20 26 11 14 1013.0 1012.2 0.0
04/06:00am 24.4 19.4 3.7 26 10.2 SSE 19 24 10 13 1012.7 1011.9 0.0
04/05:30am 24.3 19.4 4.1 27 10.1 S 19 24 10 13 1012.6 1011.8 0.0
04/05:00am 24.7 19.7 4.5 27 10.2 S 20 24 11 13 1012.4 1011.6 0.0
04/04:30am 25.0 19.9 4.2 26 10.4 S 20 24 11 13 1012.2 1011.4 0.0

Other Formats:

Comma delimited format used in spreadsheet applications
http://www.bom.gov.au/fwo/IDN60801/IDN60801.95699.axf

JavaScript Object Notation format (JSON) in row-major order
http://www.bom.gov.au/fwo/IDN60801/IDN60801.95699.json